Time;durP1;ratioP1;P1;durP2;ratioP2;P2;SDS_P1;SDS_P2;PMS_P1;PMS_P2;Temp;Humidity;BMP_temperature;BMP_pressure;BME280_temperature;BME280_humidity;BME280_pressure;Samples;Min_cycle;Max_cycle;Signal;HPM_P1;HPM_P2
2022/01/19 00:00:58;;;;;;;11.85;5.38;;;8.60;95.00;;;;;;5031882;28;20080;-65
2022/01/19 00:03:25;;;;;;;11.32;4.50;;;8.60;95.10;;;;;;5034548;28;20021;-65
2022/01/19 00:05:51;;;;;;;12.77;5.32;;;8.60;95.00;;;;;;5019386;28;20033;-65
2022/01/19 00:08:19;;;;;;;8.52;5.10;;;8.60;95.00;;;;;;5017768;28;20026;-65
2022/01/19 00:10:46;;;;;;;12.07;4.90;;;8.60;95.00;;;;;;5025325;28;20032;-65
2022/01/19 00:13:12;;;;;;;20.77;7.13;;;8.60;95.00;;;;;;5036516;28;20033;-66
2022/01/19 00:15:38;;;;;;;11.85;5.25;;;8.50;94.90;;;;;;5025535;28;20029;-65
2022/01/19 00:18:03;;;;;;;15.07;5.40;;;8.50;94.90;;;;;;5032847;28;20572;-65
2022/01/19 00:20:31;;;;;;;12.02;5.05;;;8.50;94.90;;;;;;5018227;28;20036;-67
2022/01/19 00:22:57;;;;;;;11.38;5.38;;;8.50;94.90;;;;;;5034269;28;20033;-65
2022/01/19 00:25:23;;;;;;;11.13;4.88;;;8.50;95.00;;;;;;5033023;28;20048;-65
2022/01/19 00:27:49;;;;;;;16.52;6.63;;;8.50;95.00;;;;;;5033847;28;20021;-65
2022/01/19 00:30:15;;;;;;;14.85;5.78;;;8.50;95.00;;;;;;5032253;28;20079;-66
2022/01/19 00:32:40;;;;;;;12.32;4.88;;;8.40;95.00;;;;;;5027619;28;20025;-66
2022/01/19 00:35:09;;;;;;;11.55;4.32;;;8.50;95.00;;;;;;5025225;28;20025;-65
2022/01/19 00:37:35;;;;;;;9.68;4.45;;;8.50;95.00;;;;;;5031960;28;20021;-65
2022/01/19 00:40:00;;;;;;;16.60;5.90;;;8.50;95.00;;;;;;5031866;28;20084;-66
2022/01/19 00:42:26;;;;;;;10.90;4.88;;;8.50;95.00;;;;;;5028725;28;20030;-66
2022/01/19 00:44:52;;;;;;;11.48;5.60;;;8.50;95.00;;;;;;5032491;28;20025;-66
2022/01/19 00:47:17;;;;;;;12.68;4.60;;;8.50;95.00;;;;;;5018009;28;20038;-65
2022/01/19 00:49:43;;;;;;;11.05;4.78;;;8.50;95.00;;;;;;5033579;28;20481;-66
2022/01/19 00:52:09;;;;;;;11.82;4.57;;;8.50;95.00;;;;;;5030547;28;20049;-65
2022/01/19 00:54:35;;;;;;;9.35;4.45;;;8.40;95.00;;;;;;5033672;28;20057;-65
2022/01/19 00:57:01;;;;;;;10.98;4.60;;;8.40;95.00;;;;;;5027005;28;20057;-66
2022/01/19 00:59:26;;;;;;;10.48;5.13;;;8.40;95.00;;;;;;5032106;28;20034;-65
2022/01/19 01:01:52;;;;;;;14.00;5.32;;;8.40;95.10;;;;;;5023991;28;20124;-66
2022/01/19 01:04:17;;;;;;;12.63;4.93;;;8.40;95.10;;;;;;5028462;28;20140;-66
2022/01/19 01:06:43;;;;;;;11.32;4.60;;;8.50;95.10;;;;;;5026120;28;20037;-66
2022/01/19 01:09:08;;;;;;;10.88;4.85;;;8.50;95.10;;;;;;5032962;28;20168;-66
2022/01/19 01:11:36;;;;;;;8.55;4.53;;;8.50;95.10;;;;;;5028865;28;20026;-65
2022/01/19 01:16:36;;;;;;;11.70;4.88;;;8.50;95.10;;;;;;5024488;28;20445;-65
2022/01/19 01:19:04;;;;;;;14.48;4.80;;;8.60;95.10;;;;;;5015803;28;20473;-65
2022/01/19 01:21:30;;;;;;;13.88;4.68;;;8.60;95.10;;;;;;5030853;28;20069;-65
2022/01/19 01:23:56;;;;;;;8.75;4.53;;;8.50;95.00;;;;;;5031447;28;20053;-65
2022/01/19 01:26:22;;;;;;;12.80;5.25;;;8.50;95.00;;;;;;5013777;28;20033;-65
2022/01/19 01:28:47;;;;;;;13.00;5.57;;;8.50;95.00;;;;;;5013620;28;20026;-66
2022/01/19 01:31:13;;;;;;;14.32;5.78;;;8.50;95.00;;;;;;5015897;28;20599;-65
2022/01/19 01:33:40;;;;;;;14.32;5.75;;;8.50;95.00;;;;;;5031716;28;20033;-65
2022/01/19 01:36:06;;;;;;;14.73;5.63;;;8.50;94.90;;;;;;5030870;28;20376;-66
2022/01/19 01:38:32;;;;;;;16.85;5.88;;;8.40;95.00;;;;;;5017169;28;20039;-66
2022/01/19 01:40:58;;;;;;;10.35;5.65;;;8.40;95.00;;;;;;5027116;28;20026;-65
2022/01/19 01:43:24;;;;;;;17.08;6.22;;;8.40;95.10;;;;;;5031686;28;20030;-65
2022/01/19 01:45:54;;;;;;;15.30;6.45;;;8.40;95.10;;;;;;5024134;28;20041;-65
2022/01/19 01:48:23;;;;;;;13.57;6.32;;;8.40;95.10;;;;;;5032695;28;20038;-65
2022/01/19 01:53:35;;;;;;;16.23;7.88;;;8.40;95.10;;;;;;5013428;28;20393;-65
2022/01/19 01:56:07;;;;;;;15.07;6.82;;;8.40;95.10;;;;;;5020803;28;20021;-65
2022/01/19 01:58:35;;;;;;;20.02;8.15;;;8.40;95.10;;;;;;5032294;28;20026;-65
2022/01/19 02:01:02;;;;;;;17.63;7.32;;;8.50;95.10;;;;;;5020422;28;20064;-66
2022/01/19 02:03:28;;;;;;;15.77;7.72;;;8.50;95.10;;;;;;5032483;28;20025;-65
2022/01/19 02:08:45;;;;;;;17.08;8.30;;;8.50;95.10;;;;;;5012832;28;20034;-65
2022/01/19 02:21:38;;;;;;;16.38;7.75;;;8.50;95.10;;;;;;5024283;28;20029;-66
2022/01/19 02:24:06;;;;;;;19.52;8.10;;;8.50;95.10;;;;;;5010984;28;20087;-65
2022/01/19 02:26:48;;;;;;;20.58;9.65;;;8.50;95.20;;;;;;5017328;28;20037;-64
2022/01/19 02:29:43;;;;;;;18.52;8.68;;;8.50;95.20;;;;;;5031600;28;20071;-65
2022/01/19 02:40:12;;;;;;;15.82;7.03;;;8.50;95.20;;;;;;5017361;28;20087;-65
2022/01/19 02:42:53;;;;;;;16.23;7.18;;;8.40;95.20;;;;;;5029801;28;20029;-64
2022/01/19 02:50:33;;;;;;;15.27;7.55;;;8.50;95.20;;;;;;5028697;28;20135;-64
2022/01/19 02:52:58;;;;;;;14.43;7.47;;;8.40;95.10;;;;;;5024156;28;20111;-64
2022/01/19 02:55:24;;;;;;;17.35;6.97;;;8.50;95.10;;;;;;5040803;28;20678;-64
2022/01/19 02:57:50;;;;;;;15.82;7.28;;;8.40;95.00;;;;;;5029132;28;20025;-64
2022/01/19 03:08:47;;;;;;;15.52;7.28;;;8.50;95.10;;;;;;5022507;28;20156;-64
2022/01/19 03:11:18;;;;;;;13.55;6.55;;;8.50;95.10;;;;;;5027739;28;20030;-65
2022/01/19 03:13:48;;;;;;;14.45;6.78;;;8.50;95.10;;;;;;5031056;28;20029;-64
2022/01/19 03:16:14;;;;;;;11.10;6.53;;;8.40;95.10;;;;;;5025795;28;20108;-64
2022/01/19 03:18:40;;;;;;;13.63;6.90;;;8.50;95.00;;;;;;5020122;28;20117;-65
2022/01/19 03:21:06;;;;;;;14.90;8.10;;;8.40;95.00;;;;;;5011382;28;20446;-64
2022/01/19 03:23:33;;;;;;;13.77;7.13;;;8.40;95.00;;;;;;5011591;28;20037;-64
2022/01/19 03:26:01;;;;;;;13.20;6.82;;;8.40;95.00;;;;;;5014707;28;20030;-64
2022/01/19 03:28:26;;;;;;;11.43;7.10;;;8.50;95.00;;;;;;5011593;28;20117;-64
2022/01/19 03:30:52;;;;;;;15.57;7.43;;;8.40;95.00;;;;;;5021103;28;20113;-65
2022/01/19 03:33:18;;;;;;;20.63;7.85;;;8.40;95.00;;;;;;5031036;28;20115;-65
2022/01/19 03:35:43;;;;;;;13.45;7.38;;;8.40;95.00;;;;;;5026488;28;20026;-64
2022/01/19 03:38:10;;;;;;;14.82;8.10;;;8.40;95.00;;;;;;5028771;28;20316;-65
2022/01/19 03:40:36;;;;;;;17.25;8.57;;;8.50;95.00;;;;;;5014935;28;20049;-65
2022/01/19 03:43:05;;;;;;;14.77;7.57;;;8.50;95.00;;;;;;5024416;28;20040;-65
2022/01/19 03:45:34;;;;;;;17.52;7.18;;;8.50;94.90;;;;;;5022146;28;20037;-65
2022/01/19 03:48:26;;;;;;;17.38;7.93;;;8.40;94.90;;;;;;5030662;28;20044;-65
2022/01/19 03:50:52;;;;;;;12.90;7.60;;;8.50;95.00;;;;;;5017287;28;20030;-65
2022/01/19 03:53:17;;;;;;;18.05;8.70;;;8.40;95.00;;;;;;5029999;28;20021;-65
2022/01/19 03:55:43;;;;;;;16.50;9.02;;;8.40;95.00;;;;;;5014918;28;20034;-65
2022/01/19 03:58:09;;;;;;;11.43;8.52;;;8.40;95.10;;;;;;5016079;28;20115;-65
2022/01/19 04:00:39;;;;;;;12.00;7.93;;;8.40;95.00;;;;;;5026157;28;20107;-65
2022/01/19 04:03:06;;;;;;;19.13;8.18;;;8.40;95.00;;;;;;5024364;28;20041;-65
2022/01/19 04:08:15;;;;;;;14.55;7.82;;;8.40;95.20;;;;;;5016040;28;20549;-66
2022/01/19 04:10:41;;;;;;;20.08;7.88;;;8.50;94.90;;;;;;5026027;28;20116;-66
2022/01/19 04:16:01;;;;;;;10.15;7.00;;;8.40;94.80;;;;;;5027170;28;20034;-65
2022/01/19 04:18:27;;;;;;;14.60;6.63;;;8.40;94.90;;;;;;5013534;28;20037;-66
2022/01/19 04:20:53;;;;;;;17.20;7.28;;;8.40;94.90;;;;;;5022096;28;20038;-65
2022/01/19 04:23:20;;;;;;;14.38;7.35;;;8.40;94.90;;;;;;5033235;28;20030;-66
2022/01/19 04:25:46;;;;;;;15.88;6.57;;;8.30;94.90;;;;;;5031705;28;20036;-66
2022/01/19 04:28:12;;;;;;;14.60;6.97;;;8.30;94.90;;;;;;5033551;28;20404;-66
2022/01/19 04:30:38;;;;;;;14.13;6.60;;;8.30;94.90;;;;;;5025934;28;20021;-66
2022/01/19 04:33:18;;;;;;;13.13;6.55;;;8.40;95.00;;;;;;5032254;28;20044;-66
2022/01/19 04:35:46;;;;;;;12.20;6.35;;;8.40;94.90;;;;;;5022779;28;20120;-66
2022/01/19 04:44:08;;;;;;;13.57;7.18;;;8.40;94.90;;;;;;5032815;28;20029;-65
2022/01/19 05:05:16;;;;;;;13.02;7.35;;;8.20;95.00;;;;;;5025533;28;20040;-65
2022/01/19 05:07:53;;;;;;;16.13;8.93;;;8.20;95.00;;;;;;5031073;28;20163;-65
2022/01/19 05:15:47;;;;;;;15.23;7.70;;;8.10;95.10;;;;;;5017501;28;20042;-65
2022/01/19 05:18:13;;;;;;;15.80;7.47;;;8.10;95.10;;;;;;5013140;28;20018;-65
2022/01/19 05:20:39;;;;;;;15.88;8.57;;;8.20;95.10;;;;;;5022825;28;20140;-65
2022/01/19 05:23:05;;;;;;;15.00;7.72;;;8.20;95.20;;;;;;5018875;28;20026;-65
2022/01/19 05:25:30;;;;;;;17.70;7.97;;;8.20;95.20;;;;;;5030231;28;20040;-66
2022/01/19 05:27:56;;;;;;;13.48;7.80;;;8.20;95.20;;;;;;5032075;28;20033;-66
2022/01/19 05:30:21;;;;;;;14.80;8.00;;;8.20;95.20;;;;;;5032580;28;20112;-65
2022/01/19 05:32:47;;;;;;;15.68;7.35;;;8.20;95.20;;;;;;5014508;28;20109;-65
2022/01/19 05:35:14;;;;;;;13.05;8.07;;;8.20;95.10;;;;;;5026862;28;20029;-65
2022/01/19 05:37:40;;;;;;;16.02;7.43;;;8.20;95.20;;;;;;5031363;28;20036;-65
2022/01/19 05:40:08;;;;;;;20.77;8.60;;;8.20;95.20;;;;;;5032387;28;20033;-66
2022/01/19 05:42:33;;;;;;;14.32;8.23;;;8.20;95.20;;;;;;5031311;28;20029;-65
2022/01/19 05:44:59;;;;;;;13.30;7.45;;;8.20;95.10;;;;;;5031404;28;20106;-66
2022/01/19 05:47:24;;;;;;;15.38;8.25;;;8.20;95.10;;;;;;5027189;28;20041;-65
2022/01/19 05:49:50;;;;;;;14.65;7.68;;;8.20;95.00;;;;;;5032602;28;20043;-65
2022/01/19 05:52:16;;;;;;;15.13;7.45;;;8.30;95.10;;;;;;5025208;28;20113;-65
2022/01/19 05:54:41;;;;;;;13.68;7.22;;;8.20;95.00;;;;;;5030509;28;20029;-65
2022/01/19 05:57:07;;;;;;;19.38;7.78;;;8.20;95.00;;;;;;5030533;28;20087;-65
2022/01/19 05:59:34;;;;;;;17.13;8.73;;;8.20;95.10;;;;;;5020707;28;20044;-65
2022/01/19 06:02:00;;;;;;;17.73;9.45;;;8.20;95.10;;;;;;5018536;28;20026;-66
2022/01/19 06:04:25;;;;;;;14.45;8.07;;;8.20;95.00;;;;;;5035252;28;20049;-66
2022/01/19 06:06:53;;;;;;;22.00;8.30;;;8.20;95.10;;;;;;5023412;28;20428;-66
2022/01/19 06:12:05;;;;;;;16.25;7.68;;;8.20;95.00;;;;;;5022820;28;20041;-66
2022/01/19 06:14:32;;;;;;;19.92;8.10;;;8.20;95.00;;;;;;5021705;28;20125;-66
2022/01/19 06:16:58;;;;;;;16.65;8.18;;;8.20;95.00;;;;;;5022110;28;20107;-65
2022/01/19 06:19:23;;;;;;;14.43;8.52;;;8.20;95.00;;;;;;5036761;28;20052;-65
2022/01/19 06:21:49;;;;;;;19.48;10.27;;;8.20;95.00;;;;;;5039147;28;20037;-65
2022/01/19 06:24:14;;;;;;;15.90;8.00;;;8.10;95.00;;;;;;5029397;28;20621;-65
2022/01/19 06:26:40;;;;;;;16.55;9.77;;;8.20;95.10;;;;;;5028467;28;20085;-65
2022/01/19 06:29:05;;;;;;;14.65;8.23;;;8.20;95.00;;;;;;5031241;28;20380;-66
2022/01/19 06:31:31;;;;;;;16.00;8.02;;;8.10;95.00;;;;;;5026987;28;20025;-66
2022/01/19 06:33:57;;;;;;;17.30;8.10;;;8.10;95.00;;;;;;5012699;28;20080;-66
2022/01/19 06:36:23;;;;;;;15.70;7.90;;;8.10;95.00;;;;;;5029618;28;20032;-66
2022/01/19 06:38:48;;;;;;;17.15;8.40;;;8.10;95.00;;;;;;5031877;28;20112;-66
2022/01/19 06:41:14;;;;;;;12.98;7.82;;;8.10;95.00;;;;;;5019550;28;20017;-65
2022/01/19 06:43:40;;;;;;;16.50;8.73;;;8.10;95.00;;;;;;5031269;28;20025;-66
2022/01/19 06:46:05;;;;;;;16.48;8.13;;;8.10;95.00;;;;;;5024352;28;20164;-66
2022/01/19 06:48:31;;;;;;;18.50;9.68;;;8.10;95.00;;;;;;5024904;28;20128;-66
2022/01/19 06:50:56;;;;;;;19.88;9.32;;;8.00;95.00;;;;;;5026969;28;20026;-66
2022/01/19 06:53:22;;;;;;;16.25;8.57;;;8.10;95.10;;;;;;5021905;28;20358;-65
2022/01/19 06:55:47;;;;;;;16.70;9.05;;;8.00;95.00;;;;;;5013867;28;20047;-66
2022/01/19 06:58:13;;;;;;;18.85;10.13;;;8.00;95.10;;;;;;5026064;28;20488;-66
2022/01/19 07:00:39;;;;;;;20.55;9.32;;;8.00;95.10;;;;;;5026662;28;20099;-66
2022/01/19 07:03:04;;;;;;;130.98;19.52;;;7.90;95.20;;;;;;5031010;28;20068;-66
2022/01/19 07:05:30;;;;;;;37.28;11.63;;;7.90;95.30;;;;;;5026161;28;20022;-66
2022/01/19 07:07:57;;;;;;;26.08;9.00;;;7.90;95.30;;;;;;5012392;28;20026;-66
2022/01/19 07:10:23;;;;;;;18.58;8.95;;;8.00;95.30;;;;;;5028123;28;20104;-66
2022/01/19 07:12:48;;;;;;;18.80;8.85;;;8.00;95.30;;;;;;5025587;28;20125;-65
2022/01/19 07:15:14;;;;;;;14.13;7.70;;;7.90;95.30;;;;;;5031021;28;20041;-65
2022/01/19 07:17:40;;;;;;;15.38;6.90;;;8.00;95.30;;;;;;5016050;28;20485;-65
2022/01/19 07:20:06;;;;;;;15.75;8.25;;;8.00;95.20;;;;;;5015940;28;20089;-64
2022/01/19 07:22:32;;;;;;;13.70;7.30;;;8.00;95.20;;;;;;5029247;28;20025;-66
2022/01/19 07:24:59;;;;;;;16.60;7.22;;;8.00;95.20;;;;;;5030965;28;20032;-65
2022/01/19 07:27:24;;;;;;;16.55;8.35;;;8.00;95.20;;;;;;5027086;28;20052;-64
2022/01/19 07:29:50;;;;;;;15.65;7.40;;;8.00;95.20;;;;;;5020649;28;20030;-64
2022/01/19 07:32:15;;;;;;;15.57;8.20;;;8.00;95.20;;;;;;5028507;28;20436;-64
2022/01/19 07:34:41;;;;;;;16.40;7.90;;;8.00;95.20;;;;;;5022976;28;20113;-64
2022/01/19 07:37:07;;;;;;;12.93;6.78;;;8.00;95.20;;;;;;5023190;28;20029;-65
2022/01/19 07:39:32;;;;;;;15.18;7.63;;;8.00;95.10;;;;;;5033198;28;20522;-64
2022/01/19 07:41:59;;;;;;;18.17;7.65;;;8.00;95.30;;;;;;5033249;28;20036;-65
2022/01/19 07:44:24;;;;;;;16.05;7.38;;;8.00;95.20;;;;;;5034971;28;20026;-66
2022/01/19 07:46:51;;;;;;;15.35;7.25;;;7.90;95.20;;;;;;5026413;28;20022;-65
2022/01/19 07:49:17;;;;;;;17.73;7.60;;;7.90;95.30;;;;;;5025911;28;20108;-63
2022/01/19 07:51:42;;;;;;;18.85;8.35;;;7.90;95.30;;;;;;5020547;28;20160;-63
2022/01/19 07:54:08;;;;;;;15.10;7.15;;;7.90;95.40;;;;;;5023932;28;20029;-64
2022/01/19 07:56:34;;;;;;;12.52;6.70;;;7.90;95.30;;;;;;5025999;28;20029;-64
2022/01/19 07:58:59;;;;;;;17.27;7.45;;;8.00;95.40;;;;;;5031422;28;20038;-63
2022/01/19 08:01:27;;;;;;;14.13;6.22;;;7.90;95.40;;;;;;5019207;28;20118;-63
2022/01/19 08:03:53;;;;;;;14.27;6.18;;;7.90;95.40;;;;;;5014001;28;20022;-64
2022/01/19 08:06:18;;;;;;;17.38;8.50;;;7.90;95.30;;;;;;5020520;28;20559;-64
2022/01/19 08:08:44;;;;;;;19.17;7.25;;;8.00;95.30;;;;;;5020202;28;20033;-63
2022/01/19 08:11:09;;;;;;;19.13;7.80;;;8.00;95.30;;;;;;5026581;28;20044;-64
2022/01/19 08:13:35;;;;;;;19.40;7.35;;;7.90;95.20;;;;;;5029790;28;20041;-64
2022/01/19 08:16:00;;;;;;;538.70;90.47;;;7.90;95.20;;;;;;5029310;28;20031;-64
2022/01/19 08:18:26;;;;;;;286.13;47.90;;;7.90;95.20;;;;;;5032779;28;20033;-64
2022/01/19 08:20:51;;;;;;;296.67;45.00;;;7.80;95.10;;;;;;5031908;28;20121;-64
2022/01/19 08:23:17;;;;;;;432.08;63.78;;;7.80;95.20;;;;;;5024155;28;20041;-64
2022/01/19 08:25:42;;;;;;;407.65;59.35;;;7.70;95.20;;;;;;5026085;28;20057;-64
2022/01/19 08:28:08;;;;;;;345.70;52.28;;;7.70;95.20;;;;;;5032148;28;20028;-63
2022/01/19 08:30:34;;;;;;;134.88;24.65;;;7.60;95.30;;;;;;5042219;28;20384;-63
2022/01/19 08:32:59;;;;;;;324.98;49.55;;;7.60;95.30;;;;;;5032361;28;20083;-64
2022/01/19 08:35:25;;;;;;;361.90;55.78;;;7.50;95.30;;;;;;5027520;28;20025;-63
2022/01/19 08:37:50;;;;;;;655.83;116.90;;;7.50;95.30;;;;;;5029692;28;20029;-62
2022/01/19 08:40:16;;;;;;;468.30;75.20;;;7.60;95.30;;;;;;5018946;28;20101;-63
2022/01/19 08:42:41;;;;;;;704.28;113.28;;;7.50;95.20;;;;;;5029036;28;20017;-64
2022/01/19 08:45:08;;;;;;;200.40;36.38;;;7.60;95.30;;;;;;5027935;28;20496;-63
2022/01/19 08:47:39;;;;;;;119.38;19.92;;;7.50;95.30;;;;;;5018277;28;20419;-63
2022/01/19 08:50:07;;;;;;;120.88;16.98;;;7.50;95.40;;;;;;5026716;28;20362;-64
2022/01/19 08:52:34;;;;;;;33.65;8.60;;;7.50;95.40;;;;;;5030803;28;20057;-63
2022/01/19 08:54:59;;;;;;;40.05;9.27;;;7.50;95.40;;;;;;5027481;28;20496;-63
2022/01/19 08:57:25;;;;;;;43.78;8.73;;;7.50;95.40;;;;;;5022502;28;20017;-63
2022/01/19 08:59:51;;;;;;;90.85;14.75;;;7.50;95.40;;;;;;5030802;28;20132;-64
2022/01/19 09:02:17;;;;;;;49.33;9.27;;;7.40;95.40;;;;;;5031697;28;20381;-65
2022/01/19 09:04:42;;;;;;;45.60;8.70;;;7.40;95.50;;;;;;5026485;28;20133;-64
2022/01/19 09:07:08;;;;;;;33.75;9.13;;;7.40;95.50;;;;;;5025142;28;20033;-65
2022/01/19 09:09:33;;;;;;;30.45;8.45;;;7.40;95.60;;;;;;5028150;28;20025;-65
2022/01/19 09:11:59;;;;;;;28.83;8.00;;;7.30;95.60;;;;;;5020419;28;20490;-65
2022/01/19 09:14:25;;;;;;;17.27;7.55;;;7.30;95.60;;;;;;5028450;28;20025;-64
2022/01/19 09:16:50;;;;;;;19.08;8.07;;;7.40;95.50;;;;;;5016355;28;20029;-65
2022/01/19 09:19:17;;;;;;;17.48;8.00;;;7.30;95.60;;;;;;5024071;28;20101;-64
2022/01/19 09:21:43;;;;;;;14.98;7.30;;;7.30;95.60;;;;;;5021076;28;20461;-64
2022/01/19 09:24:11;;;;;;;11.88;7.53;;;7.30;95.60;;;;;;5030024;28;20056;-65
2022/01/19 09:26:37;;;;;;;14.35;6.85;;;7.30;95.60;;;;;;5028358;28;20042;-64
2022/01/19 09:29:04;;;;;;;16.85;7.50;;;7.40;95.60;;;;;;5016854;28;20076;-64
2022/01/19 09:31:29;;;;;;;14.00;7.05;;;7.40;95.60;;;;;;5022483;28;20029;-65
2022/01/19 09:34:06;;;;;;;17.40;7.68;;;7.40;95.50;;;;;;5030411;28;20032;-65
2022/01/19 09:36:34;;;;;;;13.95;7.68;;;7.40;95.50;;;;;;5022781;28;20396;-65
2022/01/19 09:39:01;;;;;;;346.73;46.38;;;7.40;95.50;;;;;;5032096;28;20030;-64
2022/01/19 09:41:26;;;;;;;161.30;31.30;;;7.40;95.40;;;;;;5023318;28;20033;-64
2022/01/19 09:43:52;;;;;;;775.30;131.15;;;7.50;95.30;;;;;;5018329;28;20026;-64
2022/01/19 09:46:18;;;;;;;817.90;133.13;;;7.50;95.20;;;;;;5017384;28;20032;-65
2022/01/19 09:48:44;;;;;;;979.80;154.80;;;7.50;95.20;;;;;;5012635;28;20041;-64
2022/01/19 09:51:09;;;;;;;403.85;62.22;;;7.50;95.30;;;;;;5025165;28;20029;-64
2022/01/19 09:53:35;;;;;;;761.03;131.45;;;7.50;95.10;;;;;;5023566;28;20049;-64
2022/01/19 09:56:02;;;;;;;838.00;142.57;;;7.50;95.10;;;;;;5018490;28;20388;-64
2022/01/19 09:58:28;;;;;;;221.55;34.92;;;7.50;95.10;;;;;;5031370;28;20033;-65
2022/01/19 10:00:53;;;;;;;79.15;16.38;;;7.50;95.10;;;;;;5028808;28;20041;-65
2022/01/19 10:03:28;;;;;;;37.53;11.93;;;7.50;95.10;;;;;;5030444;28;20034;-65
2022/01/19 10:06:08;;;;;;;26.95;9.27;;;7.60;95.00;;;;;;5026477;28;20038;-64
2022/01/19 10:08:52;;;;;;;20.17;7.82;;;7.60;95.00;;;;;;5016287;28;20037;-65
2022/01/19 10:16:59;;;;;;;15.75;7.38;;;7.60;95.00;;;;;;5020791;28;20034;-64
2022/01/19 10:19:26;;;;;;;;;;;7.60;95.00;;;;;;5023114;28;20044;-65
2022/01/19 10:22:33;;;;;;;25.92;8.60;;;7.60;95.00;;;;;;5028234;28;20000;-64
2022/01/19 10:25:03;;;;;;;15.95;7.57;;;7.70;95.00;;;;;;5013161;28;20075;-65
2022/01/19 10:27:34;;;;;;;49.33;11.38;;;7.70;95.00;;;;;;5020975;28;20045;-65
2022/01/19 10:30:03;;;;;;;20.55;8.85;;;7.70;95.00;;;;;;5013602;28;20058;-64
2022/01/19 10:32:32;;;;;;;15.55;8.15;;;7.70;95.00;;;;;;5024516;28;20037;-64
2022/01/19 10:35:11;;;;;;;18.23;8.80;;;7.80;95.10;;;;;;5019466;28;20489;-64
2022/01/19 10:37:36;;;;;;;15.48;8.13;;;7.80;95.00;;;;;;5029696;28;20036;-64
2022/01/19 10:40:03;;;;;;;16.20;9.02;;;7.80;94.90;;;;;;5027133;28;20017;-65
2022/01/19 10:42:31;;;;;;;21.65;8.63;;;7.90;94.90;;;;;;5025975;28;20455;-64
2022/01/19 10:45:06;;;;;;;16.15;9.43;;;7.90;94.90;;;;;;5031336;28;20104;-65
2022/01/19 10:47:50;;;;;;;16.65;9.40;;;7.80;95.00;;;;;;5027031;28;20038;-65
2022/01/19 10:50:33;;;;;;;15.05;9.32;;;7.80;95.00;;;;;;5023510;28;20029;-65
2022/01/19 10:53:00;;;;;;;15.07;9.30;;;7.90;95.10;;;;;;5029371;28;20099;-65
2022/01/19 10:55:33;;;;;;;15.85;9.35;;;7.90;95.20;;;;;;5017104;28;20388;-64
2022/01/19 10:58:01;;;;;;;13.25;9.30;;;7.90;95.40;;;;;;5028640;28;20025;-64
2022/01/19 11:00:31;;;;;;;15.85;11.05;;;8.00;95.10;;;;;;5029454;28;20065;-64
2022/01/19 11:03:12;;;;;;;12.35;8.38;;;8.00;95.00;;;;;;5029305;28;20025;-64
2022/01/19 11:05:52;;;;;;;11.52;7.68;;;8.00;95.00;;;;;;5016211;28;20376;-64
2022/01/19 11:08:20;;;;;;;14.00;8.00;;;8.00;95.00;;;;;;5029411;28;20113;-64
2022/01/19 11:10:52;;;;;;;13.00;8.73;;;8.10;94.90;;;;;;5026913;28;20692;-64
2022/01/19 11:13:28;;;;;;;25.83;9.82;;;8.20;94.80;;;;;;5033777;28;20095;-64
2022/01/19 11:15:55;;;;;;;19.70;9.25;;;8.10;94.60;;;;;;5028226;28;20033;-65
2022/01/19 11:18:22;;;;;;;21.70;9.00;;;8.10;94.60;;;;;;5021625;28;20044;-65
2022/01/19 11:20:49;;;;;;;18.02;9.60;;;8.20;94.60;;;;;;5022537;28;20033;-65
2022/01/19 11:23:33;;;;;;;22.98;10.10;;;8.10;94.60;;;;;;5022861;28;20022;-65
2022/01/19 11:26:04;;;;;;;14.20;9.80;;;8.10;94.60;;;;;;5016982;28;20136;-64
2022/01/19 11:28:38;;;;;;;14.73;9.55;;;8.00;94.50;;;;;;5022089;28;20057;-65
2022/01/19 11:31:11;;;;;;;17.33;9.48;;;8.10;94.50;;;;;;5018225;28;20156;-65
2022/01/19 11:33:44;;;;;;;30.33;9.75;;;8.10;94.40;;;;;;5021471;28;20042;-64
2022/01/19 11:36:30;;;;;;;24.48;10.90;;;8.10;94.30;;;;;;5014808;28;20029;-65
2022/01/19 11:39:21;;;;;;;17.25;10.02;;;8.10;94.20;;;;;;5028316;28;20029;-64
2022/01/19 11:41:54;;;;;;;15.70;10.00;;;8.10;94.20;;;;;;5019093;28;20028;-65
2022/01/19 11:44:28;;;;;;;16.15;10.32;;;8.10;94.20;;;;;;5030250;28;20045;-64
2022/01/19 11:46:56;;;;;;;14.77;9.95;;;8.10;94.10;;;;;;5024901;28;20033;-63
2022/01/19 11:49:59;;;;;;;18.10;10.73;;;8.10;94.00;;;;;;5020548;28;20030;-65
2022/01/19 11:52:47;;;;;;;16.35;10.30;;;8.10;94.00;;;;;;5026418;28;20026;-64
2022/01/19 11:55:22;;;;;;;14.70;9.88;;;8.00;94.00;;;;;;5027027;28;20061;-64
2022/01/19 11:58:09;;;;;;;14.88;10.10;;;8.00;94.00;;;;;;5023876;28;20105;-65
2022/01/19 12:00:35;;;;;;;16.98;11.23;;;8.00;94.10;;;;;;5029275;28;20054;-64
2022/01/19 12:03:35;;;;;;;16.20;10.40;;;8.00;94.10;;;;;;5018800;28;20029;-65
2022/01/19 12:06:01;;;;;;;29.45;11.98;;;8.00;94.00;;;;;;5010016;28;20051;-64
2022/01/19 12:08:33;;;;;;;51.85;13.57;;;7.80;94.00;;;;;;5024287;28;20034;-64
2022/01/19 12:11:15;;;;;;;44.35;13.52;;;7.90;94.10;;;;;;5019094;28;20492;-65
2022/01/19 12:19:07;;;;;;;32.25;13.48;;;7.90;93.90;;;;;;5024856;28;20132;-64
2022/01/19 12:21:50;;;;;;;28.67;12.50;;;7.80;93.80;;;;;;5022775;28;20132;-64
2022/01/19 12:24:32;;;;;;;22.30;12.85;;;7.80;93.90;;;;;;5031489;28;20039;-64
2022/01/19 12:27:09;;;;;;;26.58;13.13;;;7.80;93.80;;;;;;5031553;28;20080;-65
2022/01/19 12:29:36;;;;;;;21.23;13.98;;;7.70;93.80;;;;;;5027237;28;20030;-64
2022/01/19 12:32:25;;;;;;;30.13;13.07;;;7.60;93.90;;;;;;5018542;28;20120;-65
2022/01/19 12:34:56;;;;;;;18.92;13.15;;;7.50;94.00;;;;;;5027509;28;20485;-64
2022/01/19 12:37:24;;;;;;;23.17;14.13;;;7.40;94.00;;;;;;5032922;28;20025;-64
2022/01/19 12:39:50;;;;;;;22.30;13.30;;;7.40;94.20;;;;;;5032571;28;20060;-64
2022/01/19 12:42:21;;;;;;;24.85;12.57;;;7.40;94.20;;;;;;5018767;28;20026;-63
2022/01/19 12:44:53;;;;;;;18.98;11.80;;;7.30;94.30;;;;;;5014207;28;20026;-64
2022/01/19 12:47:24;;;;;;;36.63;13.57;;;7.40;94.20;;;;;;5027240;28;20117;-65
2022/01/19 12:50:17;;;;;;;19.98;12.30;;;7.30;94.20;;;;;;5023009;28;20399;-64
2022/01/19 12:52:48;;;;;;;27.00;11.13;;;7.30;94.20;;;;;;5023952;28;20052;-64
2022/01/19 12:55:21;;;;;;;20.40;12.70;;;7.20;94.20;;;;;;5025908;28;20120;-65
2022/01/19 12:57:48;;;;;;;17.95;11.15;;;7.30;94.30;;;;;;5026105;28;20057;-64
2022/01/19 13:00:20;;;;;;;16.23;11.00;;;7.20;94.20;;;;;;5030310;28;20045;-64
2022/01/19 13:02:46;;;;;;;15.75;11.20;;;7.20;94.30;;;;;;5016334;28;20109;-64
2022/01/19 13:05:18;;;;;;;16.17;11.27;;;7.20;94.30;;;;;;5020447;28;20454;-65
2022/01/19 13:07:52;;;;;;;14.95;10.68;;;7.20;94.40;;;;;;5029530;28;20033;-65
2022/01/19 13:10:24;;;;;;;18.65;10.68;;;7.30;94.40;;;;;;5020787;28;20039;-65
2022/01/19 13:13:09;;;;;;;19.88;11.90;;;7.20;94.40;;;;;;5036501;28;20037;-65
2022/01/19 13:15:48;;;;;;;25.50;11.60;;;7.30;94.40;;;;;;5024901;28;20030;-65
2022/01/19 13:18:29;;;;;;;17.73;11.73;;;7.30;94.30;;;;;;5023876;28;20037;-66
2022/01/19 13:20:56;;;;;;;14.57;10.57;;;7.40;94.20;;;;;;5017538;28;20464;-64
2022/01/19 13:23:23;;;;;;;21.55;11.18;;;7.40;94.10;;;;;;5017408;28;20044;-65
2022/01/19 13:26:04;;;;;;;1404.15;245.52;;;7.40;94.10;;;;;;5021274;28;20052;-64
2022/01/19 13:28:32;;;;;;;103.88;27.27;;;7.40;94.10;;;;;;5026932;28;20040;-65
2022/01/19 13:31:18;;;;;;;382.35;59.13;;;7.40;94.00;;;;;;5015595;28;20100;-65
2022/01/19 13:34:02;;;;;;;62.35;18.38;;;7.50;94.00;;;;;;5023053;28;20037;-65
2022/01/19 13:36:28;;;;;;;33.22;15.00;;;7.50;94.00;;;;;;5023246;28;20029;-66
2022/01/19 13:38:55;;;;;;;23.25;12.70;;;7.50;94.00;;;;;;5013062;28;20123;-66
2022/01/19 13:41:21;;;;;;;19.90;12.02;;;7.50;94.00;;;;;;5014778;28;20022;-65
2022/01/19 13:43:47;;;;;;;18.40;12.70;;;7.40;94.00;;;;;;5028171;28;20416;-64
2022/01/19 13:46:21;;;;;;;19.85;12.80;;;7.40;93.80;;;;;;5029052;28;20026;-65
2022/01/19 13:48:55;;;;;;;17.85;13.30;;;7.30;93.80;;;;;;5025602;28;20029;-65
2022/01/19 13:51:22;;;;;;;17.27;12.27;;;7.30;93.80;;;;;;5017061;28;20026;-65
2022/01/19 13:53:53;;;;;;;19.60;14.07;;;7.30;93.80;;;;;;5017363;28;20044;-65
2022/01/19 13:56:32;;;;;;;19.05;12.32;;;7.30;93.90;;;;;;5014467;28;20095;-65
2022/01/19 13:59:03;;;;;;;18.58;12.60;;;7.30;93.90;;;;;;5022420;28;20067;-65
2022/01/19 14:01:40;;;;;;;16.48;11.38;;;7.30;94.00;;;;;;5024962;28;20053;-65
2022/01/19 14:04:08;;;;;;;17.88;11.75;;;7.30;94.00;;;;;;5030343;28;20026;-65
2022/01/19 14:06:37;;;;;;;17.83;12.73;;;7.30;93.90;;;;;;5022711;28;20068;-65
2022/01/19 14:09:13;;;;;;;17.33;11.15;;;7.30;93.90;;;;;;5013452;28;20469;-65
2022/01/19 14:11:44;;;;;;;18.02;11.15;;;7.30;93.90;;;;;;5024721;28;20485;-65
2022/01/19 14:14:20;;;;;;;16.13;11.48;;;7.30;93.90;;;;;;5040013;28;20030;-65
2022/01/19 14:16:48;;;;;;;15.77;11.25;;;7.30;94.00;;;;;;5016042;28;20025;-65
2022/01/19 14:19:19;;;;;;;17.20;11.45;;;7.30;94.00;;;;;;5018914;28;20025;-64
2022/01/19 14:22:07;;;;;;;16.98;12.25;;;7.20;94.10;;;;;;5018300;28;20048;-65